Terminal Aerodrome Forecast
Issued by NWS

Home | Current Version | Previous Version | Graphics & Text | Print | Product List | Glossary On
Versions: 1 2 3 4 5 6 7 8 9 10 11 12 13 14 15 16 17 18 19 20
684
FTUS43 KABR 221140
TAFMBG
TAF
KMBG 221140Z 2212/2312 15016G27KT P6SM OVC035
     FM221600 15016G25KT P6SM OVC025
     FM222200 17017KT P6SM -SHRA VCTS BKN040CB
     FM230300 19012KT P6SM VCSH OVC035
     FM230700 31010KT P6SM BKN100=

USA.gov is the U.S. government's official web portal to all federal, state and local government web resources and services.